Skip Navigation LinksHome page > Weather > Current weather Skip Navigation Links

Current Weather

Whiteside Co Arpt-Jos H Bittorf Fld, Sterling/Rockfalls, Ill.

For information only: do not use for flight planning or navigation.
Latest weather
Observation time Friday, August 14, 2020 11:56 AM CDT
Local time Friday, August 14, 2020 12:05 PM CDT
Flight conditions Visual Meteorological Conditions
Winds
Wind direction variable
Wind speed 3 mph
Visibility 10 mi.
Sky condition
Ceiling unlimited
Sky clear
Temperature 84°F
Dewpoint 67°F
Altimeter 30.03 in.Hg
Derived measurements
Relative humidity 57%
Heat index 87°F
Density altitude 2426 ft.
Sea-level pressure 29.62 in.Hg
Remarks
Automated weather observing station with precipitation discriminator.
METAR KSQI 141656Z VRB03KT 10SM CLR 29/19 A3003 RMK AO2 SLP032 T02890194

Settings

Location code

InnerDrive.Weather 4.0.6770.0 Release CLR 4.0.30319.42000
Copyright ©2018 Inner Drive Technology. All rights reserved. Portions Copyright ©1986-2018 David Braverman.

Find weather

Site navigation


Skip Navigation Links

Place info

Page info

PayPal - The safer, easier way to pay online!

Return home.

Copyright ©2020 Inner Drive Technology. Purveyors of fine, hand-crafted computer software. Page printed 2020-08-14T17:05:43 UTC.